createdAt,value
2023-11-24T00:01:49.080Z,94810.97
2023-11-24T00:04:35.094Z,94811.16
2023-11-24T00:07:02.117Z,94820.84
2023-11-24T00:09:30.420Z,94812.13
2023-11-24T00:11:57.340Z,94817.69
2023-11-24T00:14:24.129Z,94818.78
2023-11-24T00:16:52.948Z,94817.66
2023-11-24T00:19:19.911Z,94804.16
2023-11-24T00:21:48.083Z,94802.88
2023-11-24T00:24:14.851Z,94794.47
2023-11-24T00:26:41.602Z,94797.28
2023-11-24T00:29:08.440Z,94801.41
2023-11-24T00:31:35.256Z,94795.69
2023-11-24T00:34:02.228Z,94787.03
2023-11-24T00:36:29.080Z,94779.78
2023-11-24T00:38:56.220Z,94776.63
2023-11-24T00:41:22.987Z,94761.72
2023-11-24T00:43:51.242Z,94759.13
2023-11-24T00:46:18.175Z,94767.34
2023-11-24T00:48:45.458Z,94765.63
2023-11-24T00:51:12.317Z,94764.94
2023-11-24T00:53:39.480Z,94763.88
2023-11-24T00:56:07.914Z,94759.34
2023-11-24T00:58:34.736Z,94751.34
2023-11-24T01:01:01.636Z,94729.41
2023-11-24T01:03:31.265Z,94732.16
2023-11-24T01:05:58.718Z,94738.03
2023-11-24T01:08:43.653Z,94738.97
2023-11-24T01:11:13.200Z,94744.81
2023-11-24T01:13:40.362Z,94732.41
2023-11-24T01:20:00.303Z,94737.59
2023-11-24T01:22:27.184Z,94742.88
2023-11-24T01:25:12.635Z,94754.13
2023-11-24T01:27:39.642Z,94752.56
2023-11-24T01:30:09.611Z,94748.88
2023-11-24T01:32:37.623Z,94745.59
2023-11-24T01:35:22.616Z,94750.44
2023-11-24T01:37:50.810Z,94746.75
2023-11-24T01:40:36.654Z,94745.84
2023-11-24T01:43:03.955Z,94733.00
2023-11-24T01:45:31.648Z,94727.88
2023-11-24T01:47:58.748Z,94724.59
2023-11-24T01:50:25.810Z,94727.91
2023-11-24T01:56:58.058Z,94734.75
2023-11-24T01:59:24.804Z,94741.63
2023-11-24T02:01:54.783Z,94715.19
2023-11-24T02:04:25.504Z,94718.88
2023-11-24T02:06:53.320Z,94717.81
2023-11-24T02:09:21.407Z,94721.22
2023-11-24T02:11:50.957Z,94714.06
2023-11-24T02:14:19.002Z,94711.88
2023-11-24T02:16:46.189Z,94697.84
2023-11-24T02:19:15.333Z,94695.63
2023-11-24T02:21:42.535Z,94696.50
2023-11-24T02:24:09.381Z,94692.75
2023-11-24T02:26:38.996Z,94678.84
2023-11-24T02:29:06.911Z,94680.50
2023-11-24T02:31:34.198Z,94680.63
2023-11-24T02:34:01.132Z,94678.28
2023-11-24T02:36:28.487Z,94669.88
2023-11-24T02:38:55.288Z,94674.75
2023-11-24T02:41:34.159Z,94655.84
2023-11-24T02:44:01.234Z,94646.16
2023-11-24T02:50:13.568Z,94655.78
2023-11-24T02:52:41.311Z,94653.38
2023-11-24T02:55:23.334Z,94662.91
2023-11-24T02:57:59.637Z,94650.38
2023-11-24T03:00:26.532Z,94648.63
2023-11-24T03:02:54.862Z,94631.44
2023-11-24T03:05:21.974Z,94629.22
2023-11-24T03:07:51.523Z,94611.91
2023-11-24T03:10:18.328Z,94591.22
2023-11-24T03:12:45.923Z,94587.94
2023-11-24T03:15:31.476Z,94580.84
2023-11-24T03:21:32.490Z,94578.22
2023-11-24T03:23:59.338Z,94573.75
2023-11-24T03:26:28.989Z,94570.16
2023-11-24T03:28:55.895Z,94582.97
2023-11-24T03:31:22.629Z,94584.94
2023-11-24T03:33:49.895Z,94563.84
2023-11-24T03:36:17.709Z,94562.91
2023-11-24T03:38:44.449Z,94556.69
2023-11-24T03:41:11.252Z,94556.31
2023-11-24T03:43:39.620Z,94552.94
2023-11-24T03:46:07.282Z,94556.94
2023-11-24T03:48:34.356Z,94557.81
2023-11-24T03:51:01.495Z,94568.28
2023-11-24T03:53:28.538Z,94574.97
2023-11-24T03:56:17.915Z,94587.25
2023-11-24T03:58:45.077Z,94592.47
2023-11-24T04:01:14.963Z,94589.94
2023-11-24T04:03:50.918Z,94599.00
2023-11-24T04:06:17.702Z,94605.22
2023-11-24T04:08:44.520Z,94602.75
2023-11-24T04:11:12.431Z,94607.59
2023-11-24T04:13:59.325Z,94607.56
2023-11-24T04:16:26.452Z,94605.88
2023-11-24T04:18:53.683Z,94616.69
2023-11-24T04:21:23.473Z,94626.22
2023-11-24T04:23:59.785Z,94617.31
2023-11-24T04:26:37.128Z,94610.88
2023-11-24T04:29:04.016Z,94603.78
2023-11-24T04:31:31.063Z,94603.63
2023-11-24T04:34:00.947Z,94603.09
2023-11-24T04:36:34.060Z,94595.78
2023-11-24T04:39:12.360Z,94591.31
2023-11-24T04:41:39.171Z,94589.84
2023-11-24T04:44:07.132Z,94576.94
2023-11-24T04:46:34.473Z,94566.66
2023-11-24T04:49:02.542Z,94568.69
2023-11-24T04:51:29.809Z,94566.50
2023-11-24T04:54:15.911Z,94560.53
2023-11-24T04:57:01.952Z,94551.34
2023-11-24T04:59:28.971Z,94551.72
2023-11-24T05:02:14.637Z,94529.53
2023-11-24T05:04:41.685Z,94521.47
2023-11-24T05:07:08.597Z,94519.88
2023-11-24T05:09:35.428Z,94522.16
2023-11-24T05:12:20.870Z,94501.66
2023-11-24T05:14:47.851Z,94510.19
2023-11-24T05:17:19.505Z,94511.28
2023-11-24T05:19:46.492Z,94505.13
2023-11-24T05:22:13.824Z,94517.09
2023-11-24T05:25:07.677Z,94526.94
2023-11-24T05:27:34.822Z,94546.16
2023-11-24T05:30:02.561Z,94542.34
2023-11-24T05:33:07.426Z,94532.44
2023-11-24T05:35:34.410Z,94520.78
2023-11-24T05:38:01.417Z,94528.94
2023-11-24T05:41:09.998Z,94524.00
2023-11-24T05:43:36.821Z,94538.50
2023-11-24T05:46:03.668Z,94537.91
2023-11-24T05:48:30.693Z,94550.50
2023-11-24T05:50:57.598Z,94543.22
2023-11-24T05:53:24.487Z,94534.97
2023-11-24T05:55:51.606Z,94516.50
2023-11-24T05:58:18.431Z,94505.50
2023-11-24T06:00:45.501Z,94505.69
2023-11-24T06:03:12.366Z,94500.53
2023-11-24T06:05:40.185Z,94499.38
2023-11-24T06:08:07.087Z,94508.91
2023-11-24T06:10:37.049Z,94507.91
2023-11-24T06:13:04.302Z,94514.13
2023-11-24T06:15:31.873Z,94504.84
2023-11-24T06:17:59.064Z,94498.91
2023-11-24T06:20:25.874Z,94505.03
2023-11-24T06:22:52.691Z,94517.03
2023-11-24T06:25:19.582Z,94516.50
2023-11-24T06:27:46.571Z,94514.41
2023-11-24T06:30:14.126Z,94515.50
2023-11-24T06:32:41.037Z,94510.97
2023-11-24T06:35:20.735Z,94504.09
2023-11-24T06:37:47.899Z,94512.44
2023-11-24T06:40:56.510Z,94523.59
2023-11-24T06:43:42.184Z,94523.59
2023-11-24T06:46:09.321Z,94513.19
2023-11-24T06:48:36.690Z,94522.84
2023-11-24T06:51:05.194Z,94504.84
2023-11-24T06:53:32.441Z,94519.78
2023-11-24T06:55:59.656Z,94519.78
2023-11-24T06:58:26.650Z,94521.88
2023-11-24T07:00:53.616Z,94512.25
2023-11-24T07:03:21.058Z,94509.41
2023-11-24T07:05:48.283Z,94500.66
2023-11-24T07:08:15.505Z,94507.72
2023-11-24T07:10:43.367Z,94512.13
2023-11-24T07:13:10.290Z,94507.44
2023-11-24T07:15:37.194Z,94507.00
2023-11-24T07:18:05.112Z,94508.31
2023-11-24T07:20:32.143Z,94503.31
2023-11-24T07:23:19.060Z,94494.53
2023-11-24T07:25:47.741Z,94502.88
2023-11-24T07:28:14.658Z,94503.31
2023-11-24T07:30:42.570Z,94496.66
2023-11-24T07:33:12.076Z,94495.66
2023-11-24T07:35:39.362Z,94496.25
2023-11-24T07:38:06.844Z,94496.34
2023-11-24T07:40:33.621Z,94499.97
2023-11-24T07:43:00.476Z,94494.69
2023-11-24T07:45:28.529Z,94500.63
2023-11-24T07:47:55.667Z,94490.22
2023-11-24T07:50:22.769Z,94492.88
2023-11-24T07:52:49.678Z,94491.44
2023-11-24T07:55:16.565Z,94493.66
2023-11-24T07:57:43.516Z,94489.63
2023-11-24T08:00:11.053Z,94508.41
2023-11-24T08:02:38.078Z,94504.28
2023-11-24T08:05:05.933Z,94493.56
2023-11-24T08:07:32.735Z,94489.25
2023-11-24T08:09:59.957Z,94495.38
2023-11-24T08:12:27.061Z,94491.47
2023-11-24T08:14:53.951Z,94493.00
2023-11-24T08:17:20.764Z,94486.28
2023-11-24T08:19:47.621Z,94478.28
2023-11-24T08:22:14.700Z,94466.78
2023-11-24T08:28:28.276Z,94470.50
2023-11-24T08:30:55.408Z,94461.34
2023-11-24T08:33:22.971Z,94465.94
2023-11-24T08:35:50.444Z,94451.59
2023-11-24T08:38:19.368Z,94463.06
2023-11-24T08:40:46.955Z,94453.28
2023-11-24T08:43:13.782Z,94445.34
2023-11-24T08:45:41.042Z,94445.56
2023-11-24T08:48:08.954Z,94451.06
2023-11-24T08:54:19.527Z,94431.25
2023-11-24T08:56:46.821Z,94439.75
2023-11-24T08:59:14.164Z,94435.25
2023-11-24T09:01:42.317Z,94432.81
2023-11-24T09:04:09.523Z,94413.06
2023-11-24T09:06:36.405Z,94410.47
2023-11-24T09:09:03.981Z,94412.53
2023-11-24T09:11:30.900Z,94405.97
2023-11-24T09:13:59.107Z,94406.78
2023-11-24T09:16:26.144Z,94402.91
2023-11-24T09:18:54.240Z,94395.75
2023-11-24T09:21:21.093Z,94398.81
2023-11-24T09:23:48.267Z,94395.81
2023-11-24T09:26:15.505Z,94390.69
2023-11-24T09:28:42.297Z,94387.56
2023-11-24T09:31:09.165Z,94384.41
2023-11-24T09:33:39.444Z,94387.88
2023-11-24T09:36:06.791Z,94387.97
2023-11-24T09:41:18.308Z,94378.22
2023-11-24T09:43:45.356Z,94385.09
2023-11-24T09:46:12.674Z,94372.97
2023-11-24T09:48:42.764Z,94375.94
2023-11-24T09:51:09.546Z,94366.47
2023-11-24T09:53:36.353Z,94369.66
2023-11-24T09:56:06.432Z,94360.28
2023-11-24T09:58:33.304Z,94363.06
2023-11-24T10:01:08.265Z,94350.31
2023-11-24T10:03:39.074Z,94344.53
2023-11-24T10:10:04.575Z,94332.94
2023-11-24T10:12:31.386Z,94331.09
2023-11-24T10:14:58.220Z,94324.84
2023-11-24T10:17:25.079Z,94318.53
2023-11-24T10:19:55.331Z,94313.34
2023-11-24T10:22:27.715Z,94305.03
2023-11-24T10:24:54.548Z,94301.25
2023-11-24T10:27:22.999Z,94292.00
2023-11-24T10:29:50.100Z,94283.09
2023-11-24T10:32:17.226Z,94277.94
2023-11-24T10:34:44.872Z,94281.63
2023-11-24T10:37:20.666Z,94270.13
2023-11-24T10:39:48.379Z,94269.16
2023-11-24T10:42:15.716Z,94262.59
2023-11-24T10:48:48.696Z,94244.63
2023-11-24T10:51:31.224Z,94233.19
2023-11-24T10:53:59.130Z,94230.63
2023-11-24T10:56:26.070Z,94212.25
2023-11-24T10:58:53.403Z,94211.59
2023-11-24T11:01:21.502Z,94212.59
2023-11-24T11:03:48.504Z,94213.13
2023-11-24T11:06:39.723Z,94201.69
2023-11-24T11:09:08.292Z,94198.19
2023-11-24T11:11:41.254Z,94193.53
2023-11-24T11:14:10.191Z,94180.00
2023-11-24T11:16:37.053Z,94182.00
2023-11-24T11:19:29.857Z,94176.47
2023-11-24T11:21:56.843Z,94173.91
2023-11-24T11:24:24.043Z,94169.47
2023-11-24T11:26:50.814Z,94165.06
2023-11-24T11:29:25.512Z,94160.03
2023-11-24T11:31:52.499Z,94154.94
2023-11-24T11:34:19.877Z,94151.25
2023-11-24T11:37:13.842Z,94153.44
2023-11-24T11:43:21.445Z,94136.75
2023-11-24T11:45:51.640Z,94123.56
2023-11-24T11:48:18.698Z,94114.50
2023-11-24T11:50:58.532Z,94119.06
2023-11-24T11:53:25.844Z,94112.88
2023-11-24T11:56:05.325Z,94104.16
2023-11-24T11:58:32.150Z,94099.22
2023-11-24T12:01:13.476Z,94087.75
2023-11-24T12:03:40.425Z,94079.72
2023-11-24T12:06:07.503Z,94077.72
2023-11-24T12:08:34.578Z,94083.75
2023-11-24T12:11:01.315Z,94080.56
2023-11-24T12:13:28.154Z,94077.22
2023-11-24T12:15:55.154Z,94064.16
2023-11-24T12:18:21.982Z,94070.34
2023-11-24T12:20:49.133Z,94075.50
2023-11-24T12:23:16.317Z,94059.88
2023-11-24T12:25:43.464Z,94055.78
2023-11-24T12:28:11.131Z,94057.13
2023-11-24T12:30:56.445Z,94038.63
2023-11-24T12:33:23.349Z,94033.72
2023-11-24T12:35:57.771Z,94048.88
2023-11-24T12:38:24.564Z,94038.41
2023-11-24T12:40:51.961Z,94037.75
2023-11-24T12:43:19.494Z,94029.53
2023-11-24T12:45:50.103Z,94030.91
2023-11-24T12:48:24.654Z,94026.28
2023-11-24T12:50:54.228Z,94026.66
2023-11-24T12:53:21.029Z,94025.72
2023-11-24T12:55:48.366Z,94024.28
2023-11-24T12:58:15.241Z,94014.31
2023-11-24T13:00:42.079Z,94010.06
2023-11-24T13:03:09.006Z,94006.53
2023-11-24T13:05:35.868Z,93999.16
2023-11-24T13:08:02.633Z,93996.81
2023-11-24T13:10:29.411Z,93998.47
2023-11-24T13:12:56.233Z,94008.03
2023-11-24T13:15:23.052Z,94000.59
2023-11-24T13:17:49.859Z,94001.56
2023-11-24T13:20:16.716Z,93990.38
2023-11-24T13:22:43.852Z,93985.66
2023-11-24T13:25:11.230Z,93988.84
2023-11-24T13:27:38.303Z,93991.88
2023-11-24T13:30:06.189Z,93991.91
2023-11-24T13:32:32.981Z,93981.00
2023-11-24T13:34:59.788Z,93973.09
2023-11-24T13:41:20.119Z,93955.81
2023-11-24T13:43:46.910Z,93958.25
2023-11-24T13:46:13.776Z,93950.00
2023-11-24T13:48:43.240Z,93948.72
2023-11-24T13:51:10.025Z,93944.72
2023-11-24T13:53:36.775Z,93946.13
2023-11-24T13:56:03.590Z,93942.63
2023-11-24T13:58:30.412Z,93935.19
2023-11-24T14:00:57.276Z,93932.03
2023-11-24T14:03:24.214Z,93931.63
2023-11-24T14:05:52.753Z,93923.44
2023-11-24T14:08:19.625Z,93916.41
2023-11-24T14:10:47.020Z,93910.94
2023-11-24T14:13:13.852Z,93906.34
2023-11-24T14:15:41.209Z,93904.41
2023-11-24T14:18:08.803Z,93905.38
2023-11-24T14:20:35.679Z,93907.72
2023-11-24T14:23:02.449Z,93896.81
2023-11-24T14:25:29.230Z,93890.91
2023-11-24T14:27:56.068Z,93889.41
2023-11-24T14:30:44.223Z,93878.50
2023-11-24T14:33:11.013Z,93891.63
2023-11-24T14:35:38.536Z,93879.66
2023-11-24T14:38:05.393Z,93882.34
2023-11-24T14:40:32.283Z,93888.75
2023-11-24T14:42:59.299Z,93882.66
2023-11-24T14:45:26.171Z,93883.81
2023-11-24T14:47:53.057Z,93878.81
2023-11-24T14:50:20.605Z,93876.88
2023-11-24T14:52:47.463Z,93871.88
2023-11-24T14:59:07.254Z,93860.19
2023-11-24T15:01:34.278Z,93862.59
2023-11-24T15:04:01.212Z,93863.38
2023-11-24T15:06:28.091Z,93854.03
2023-11-24T15:08:55.041Z,93847.59
2023-11-24T15:11:22.820Z,93849.81
2023-11-24T15:13:49.651Z,93846.69
2023-11-24T15:16:20.086Z,93835.13
2023-11-24T15:18:50.218Z,93835.50
2023-11-24T15:21:17.295Z,93825.56
2023-11-24T15:23:44.163Z,93828.59
2023-11-24T15:26:14.060Z,93823.78
2023-11-24T15:28:42.245Z,93829.81
2023-11-24T15:31:09.175Z,93834.28
2023-11-24T15:33:36.386Z,93832.91
2023-11-24T15:36:03.276Z,93836.97
2023-11-24T15:38:30.060Z,93831.31
2023-11-24T15:41:04.408Z,93830.53
2023-11-24T15:43:33.278Z,93833.66
2023-11-24T15:46:01.278Z,93825.22
2023-11-24T15:48:28.125Z,93826.16
2023-11-24T15:50:55.017Z,93823.19
2023-11-24T15:53:21.794Z,93828.25
2023-11-24T15:55:49.097Z,93839.63
2023-11-24T15:58:15.981Z,93845.91
2023-11-24T16:00:49.328Z,93846.97
2023-11-24T16:03:16.754Z,93846.53
2023-11-24T16:05:45.047Z,93840.19
2023-11-24T16:08:12.644Z,93850.63
2023-11-24T16:10:41.791Z,93851.25
2023-11-24T16:13:11.391Z,93847.06
2023-11-24T16:15:40.643Z,93848.41
2023-11-24T16:18:11.989Z,93844.38
2023-11-24T16:20:42.749Z,93849.22
2023-11-24T16:27:29.272Z,93857.09
2023-11-24T16:30:01.992Z,93860.81
2023-11-24T16:32:28.981Z,93863.50
2023-11-24T16:34:56.978Z,93872.63
2023-11-24T16:37:23.889Z,93886.09
2023-11-24T16:39:53.394Z,93879.88
2023-11-24T16:42:21.508Z,93888.81
2023-11-24T16:44:51.305Z,93888.16
2023-11-24T16:47:19.746Z,93893.41
2023-11-24T16:49:47.867Z,93907.25
2023-11-24T16:52:26.998Z,93904.06
2023-11-24T16:54:54.140Z,93903.00
2023-11-24T16:57:21.566Z,93898.63
2023-11-24T17:03:41.569Z,93878.19
2023-11-24T17:06:09.792Z,93869.84
2023-11-24T17:08:37.630Z,93868.66
2023-11-24T17:11:06.320Z,93865.78
2023-11-24T17:13:36.449Z,93849.13
2023-11-24T17:16:26.211Z,93854.41
2023-11-24T17:18:54.259Z,93861.25
2023-11-24T17:21:22.164Z,93872.22
2023-11-24T17:23:50.085Z,93866.38
2023-11-24T17:26:18.145Z,93865.00
2023-11-24T17:28:46.868Z,93867.78
2023-11-24T17:31:17.596Z,93870.28
2023-11-24T17:33:45.800Z,93856.03
2023-11-24T17:36:13.497Z,93854.97
2023-11-24T17:38:40.349Z,93854.69
2023-11-24T17:41:07.319Z,93869.63
2023-11-24T17:43:34.231Z,93876.47
2023-11-24T17:46:01.279Z,93897.16
2023-11-24T17:48:30.266Z,93911.84
2023-11-24T17:50:57.038Z,93915.47
2023-11-24T17:53:23.889Z,93932.84
2023-11-24T17:55:51.047Z,93961.91
2023-11-24T17:58:19.305Z,93953.03
2023-11-24T18:00:46.667Z,93963.19
2023-11-24T18:03:13.933Z,93968.53
2023-11-24T18:05:41.068Z,93963.31
2023-11-24T18:08:07.888Z,93957.22
2023-11-24T18:10:35.396Z,93956.66
2023-11-24T18:13:02.600Z,93959.19
2023-11-24T18:15:29.418Z,93956.75
2023-11-24T18:17:56.356Z,93961.63
2023-11-24T18:20:23.166Z,93954.56
2023-11-24T18:22:51.540Z,93946.81
2023-11-24T18:25:39.924Z,93937.03
2023-11-24T18:28:08.500Z,93948.00
2023-11-24T18:30:35.853Z,93942.91
2023-11-24T18:33:03.027Z,93948.00
2023-11-24T18:35:30.288Z,93944.81
2023-11-24T18:37:57.562Z,93949.47
2023-11-24T18:40:30.035Z,93952.13
2023-11-24T18:42:56.887Z,93952.47
2023-11-24T18:45:26.884Z,93967.09
2023-11-24T18:51:42.472Z,93972.41
2023-11-24T18:54:09.580Z,93964.03
2023-11-24T18:56:37.265Z,93965.66
2023-11-24T18:59:04.098Z,93964.47
2023-11-24T19:01:30.994Z,93995.91
2023-11-24T19:03:58.822Z,93977.53
2023-11-24T19:06:25.660Z,93975.19
2023-11-24T19:08:52.856Z,93961.91
2023-11-24T19:11:22.628Z,93964.13
2023-11-24T19:13:49.875Z,93963.22
2023-11-24T19:16:17.554Z,93960.03
2023-11-24T19:18:44.541Z,93964.66
2023-11-24T19:21:31.703Z,93970.66
2023-11-24T19:23:58.641Z,93979.84
2023-11-24T19:26:28.380Z,93969.19
2023-11-24T19:29:02.854Z,93973.63
2023-11-24T19:31:35.711Z,93989.25
2023-11-24T19:34:02.574Z,93995.56
2023-11-24T19:36:29.407Z,93981.72
2023-11-24T19:39:01.452Z,93984.84
2023-11-24T19:41:28.575Z,94014.47
2023-11-24T19:43:56.728Z,93991.56
2023-11-24T19:46:35.162Z,93997.44
2023-11-24T19:49:16.542Z,93991.16
2023-11-24T19:51:51.579Z,93992.59
2023-11-24T19:58:07.332Z,94010.75
2023-11-24T20:00:35.572Z,94024.50
2023-11-24T20:03:02.474Z,94017.94
2023-11-24T20:05:30.069Z,94027.63
2023-11-24T20:07:57.085Z,94032.91
2023-11-24T20:10:23.908Z,94031.47
2023-11-24T20:12:51.937Z,94032.81
2023-11-24T20:15:19.798Z,94044.78
2023-11-24T20:17:47.253Z,94033.50
2023-11-24T20:20:14.076Z,94024.41
2023-11-24T20:22:41.454Z,94025.28
2023-11-24T20:25:09.245Z,94018.63
2023-11-24T20:27:36.482Z,94017.16
2023-11-24T20:30:31.983Z,94011.78
2023-11-24T20:32:58.786Z,94006.59
2023-11-24T20:35:25.618Z,93998.16
2023-11-24T20:37:52.578Z,93995.69
2023-11-24T20:40:20.705Z,93983.88
2023-11-24T20:42:48.403Z,93974.28
2023-11-24T20:45:15.437Z,93981.88
2023-11-24T20:47:42.724Z,93987.31
2023-11-24T20:50:13.821Z,93976.16
2023-11-24T20:53:19.268Z,93977.19
2023-11-24T20:55:46.709Z,93980.41
2023-11-24T20:58:14.239Z,93987.47
2023-11-24T21:00:41.221Z,93995.13
2023-11-24T21:03:08.956Z,93984.69
2023-11-24T21:05:36.272Z,93983.41
2023-11-24T21:08:04.471Z,93980.69
2023-11-24T21:10:31.901Z,93973.84
2023-11-24T21:12:59.333Z,93979.06
2023-11-24T21:15:26.585Z,93973.00
2023-11-24T21:17:54.671Z,93984.50
2023-11-24T21:20:21.677Z,93987.94
2023-11-24T21:22:49.102Z,93979.19
2023-11-24T21:25:16.296Z,93985.34
2023-11-24T21:27:43.192Z,93988.69
2023-11-24T21:30:12.877Z,93993.88
2023-11-24T21:32:41.308Z,93998.13
2023-11-24T21:35:09.320Z,93988.84
2023-11-24T21:37:37.197Z,93983.63
2023-11-24T21:40:08.847Z,93987.47
2023-11-24T21:42:36.967Z,93983.22
2023-11-24T21:45:05.316Z,93971.66
2023-11-24T21:47:33.994Z,93957.78
2023-11-24T21:50:07.737Z,93964.41
2023-11-24T21:52:35.446Z,93961.09
2023-11-24T21:55:02.569Z,93953.25
2023-11-24T21:57:29.428Z,93957.63
2023-11-24T21:59:56.637Z,93954.19
2023-11-24T22:02:26.108Z,93953.59
2023-11-24T22:04:52.996Z,93944.19
2023-11-24T22:07:23.461Z,93949.13
2023-11-24T22:09:50.684Z,93944.72
2023-11-24T22:12:17.488Z,93951.81
2023-11-24T22:14:44.515Z,93955.25
2023-11-24T22:17:20.103Z,93952.66
2023-11-24T22:19:49.982Z,93959.72
2023-11-24T22:22:18.388Z,93958.97
2023-11-24T22:24:45.314Z,93950.84
2023-11-24T22:27:13.309Z,93955.66
2023-11-24T22:29:51.301Z,93961.88
2023-11-24T22:32:25.667Z,93955.16
2023-11-24T22:34:53.439Z,93957.41
2023-11-24T22:37:20.684Z,93962.81
2023-11-24T22:39:47.923Z,93965.97
2023-11-24T22:42:15.290Z,93954.63
2023-11-24T22:44:42.809Z,93952.94
2023-11-24T22:47:09.769Z,93960.34
2023-11-24T22:49:38.555Z,93955.97
2023-11-24T22:52:06.940Z,93965.44
2023-11-24T22:54:37.952Z,93972.56
2023-11-24T22:57:05.841Z,93962.66
2023-11-24T22:59:33.812Z,93963.66
2023-11-24T23:02:01.830Z,93966.09
2023-11-24T23:04:28.780Z,93974.09
2023-11-24T23:06:56.019Z,93979.72
2023-11-24T23:09:26.495Z,93977.03
2023-11-24T23:11:53.354Z,93977.41
2023-11-24T23:14:25.436Z,93982.56
2023-11-24T23:16:55.765Z,93990.00
2023-11-24T23:19:23.191Z,93990.44
2023-11-24T23:21:50.612Z,93995.59
2023-11-24T23:24:18.769Z,93992.75
2023-11-24T23:26:46.784Z,93995.25
2023-11-24T23:29:15.114Z,93999.56
2023-11-24T23:31:42.061Z,93997.66
2023-11-24T23:34:09.665Z,93992.75
2023-11-24T23:36:37.894Z,93999.22
2023-11-24T23:39:05.653Z,94004.75
2023-11-24T23:41:36.095Z,94003.06
2023-11-24T23:44:04.057Z,93998.69
2023-11-24T23:46:30.995Z,93992.78
2023-11-24T23:48:58.316Z,93987.47
2023-11-24T23:51:26.538Z,93990.22
2023-11-24T23:53:56.388Z,93997.88
2023-11-24T23:56:23.429Z,94001.91
2023-11-24T23:58:50.768Z,94005.44
